sensor_id;sensor_type;location;lat;lon;timestamp;pressure;altitude;pressure_sealevel;temperature;humidity
28428;BME280;15662;49.128;8.520;2023-03-19T00:01:25;100133.66;;;17.17;41.10
28428;BME280;15662;49.128;8.520;2023-03-19T00:03:54;100121.31;;;17.14;41.18
28428;BME280;15662;49.128;8.520;2023-03-19T00:06:23;100120.25;;;17.17;41.15
28428;BME280;15662;49.128;8.520;2023-03-19T00:08:52;100113.94;;;17.18;41.10
28428;BME280;15662;49.128;8.520;2023-03-19T00:11:21;100118.28;;;17.20;41.08
28428;BME280;15662;49.128;8.520;2023-03-19T00:13:52;100118.19;;;17.22;41.24
28428;BME280;15662;49.128;8.520;2023-03-19T00:16:20;100113.50;;;17.25;41.14
28428;BME280;15662;49.128;8.520;2023-03-19T00:18:48;100102.00;;;17.23;41.04
28428;BME280;15662;49.128;8.520;2023-03-19T00:21:17;100110.25;;;17.20;41.30
28428;BME280;15662;49.128;8.520;2023-03-19T00:23:45;100122.56;;;17.23;41.56
28428;BME280;15662;49.128;8.520;2023-03-19T00:26:14;100122.50;;;17.24;41.77
28428;BME280;15662;49.128;8.520;2023-03-19T00:28:44;100127.94;;;17.23;41.76
28428;BME280;15662;49.128;8.520;2023-03-19T00:31:15;100126.38;;;17.19;42.13
28428;BME280;15662;49.128;8.520;2023-03-19T00:33:44;100126.81;;;17.11;42.11
28428;BME280;15662;49.128;8.520;2023-03-19T00:36:13;100132.19;;;17.11;42.43
28428;BME280;15662;49.128;8.520;2023-03-19T00:38:46;100127.84;;;17.09;42.51
28428;BME280;15662;49.128;8.520;2023-03-19T00:41:15;100122.16;;;16.99;42.78
28428;BME280;15662;49.128;8.520;2023-03-19T00:43:53;100130.72;;;17.06;42.83
28428;BME280;15662;49.128;8.520;2023-03-19T00:46:22;100114.03;;;17.00;42.79
28428;BME280;15662;49.128;8.520;2023-03-19T00:48:52;100122.84;;;17.02;42.82
28428;BME280;15662;49.128;8.520;2023-03-19T00:51:23;100109.22;;;16.91;42.94
28428;BME280;15662;49.128;8.520;2023-03-19T00:53:53;100137.88;;;17.05;43.19
28428;BME280;15662;49.128;8.520;2023-03-19T00:56:21;100141.59;;;17.02;43.21
28428;BME280;15662;49.128;8.520;2023-03-19T00:58:49;100144.16;;;17.04;43.23
28428;BME280;15662;49.128;8.520;2023-03-19T01:01:19;100142.53;;;17.01;43.23
28428;BME280;15662;49.128;8.520;2023-03-19T01:03:49;100141.59;;;17.02;43.37
28428;BME280;15662;49.128;8.520;2023-03-19T01:06:19;100145.13;;;17.03;43.39
28428;BME280;15662;49.128;8.520;2023-03-19T01:08:49;100143.50;;;17.00;43.38
28428;BME280;15662;49.128;8.520;2023-03-19T01:11:18;100145.47;;;16.97;43.63
28428;BME280;15662;49.128;8.520;2023-03-19T01:13:48;100158.09;;;16.95;43.73
28428;BME280;15662;49.128;8.520;2023-03-19T01:16:19;100153.91;;;16.89;43.63
28428;BME280;15662;49.128;8.520;2023-03-19T01:18:48;100148.75;;;16.86;43.61
28428;BME280;15662;49.128;8.520;2023-03-19T01:21:18;100151.34;;;16.88;43.75
28428;BME280;15662;49.128;8.520;2023-03-19T01:23:48;100150.63;;;16.84;43.72
28428;BME280;15662;49.128;8.520;2023-03-19T01:26:19;100149.25;;;16.77;43.46
28428;BME280;15662;49.128;8.520;2023-03-19T01:28:50;100160.31;;;16.87;43.66
28428;BME280;15662;49.128;8.520;2023-03-19T01:31:22;100161.28;;;16.86;43.61
28428;BME280;15662;49.128;8.520;2023-03-19T01:34:25;100166.88;;;16.81;43.35
28428;BME280;15662;49.128;8.520;2023-03-19T01:37:01;100163.41;;;16.79;43.23
28428;BME280;15662;49.128;8.520;2023-03-19T01:39:32;100165.16;;;16.80;43.30
28428;BME280;15662;49.128;8.520;2023-03-19T01:42:07;100163.41;;;16.79;43.14
28428;BME280;15662;49.128;8.520;2023-03-19T01:44:40;100165.31;;;16.77;43.00
28428;BME280;15662;49.128;8.520;2023-03-19T01:47:35;100161.22;;;16.70;43.00
28428;BME280;15662;49.128;8.520;2023-03-19T01:53:20;100171.63;;;16.76;42.94
28428;BME280;15662;49.128;8.520;2023-03-19T01:56:14;100178.69;;;16.77;42.96
28428;BME280;15662;49.128;8.520;2023-03-19T01:59:30;100171.94;;;16.70;42.55
28428;BME280;15662;49.128;8.520;2023-03-19T02:02:32;100185.16;;;16.73;42.76
28428;BME280;15662;49.128;8.520;2023-03-19T02:05:19;100179.25;;;16.66;42.54
28428;BME280;15662;49.128;8.520;2023-03-19T02:08:00;100188.13;;;16.67;42.62
28428;BME280;15662;49.128;8.520;2023-03-19T02:10:32;100172.41;;;16.61;42.63
28428;BME280;15662;49.128;8.520;2023-03-19T02:13:05;100179.31;;;16.65;42.44
28428;BME280;15662;49.128;8.520;2023-03-19T02:15:35;100195.38;;;16.65;42.79
28428;BME280;15662;49.128;8.520;2023-03-19T02:18:04;100183.81;;;16.64;42.71
28428;BME280;15662;49.128;8.520;2023-03-19T02:21:09;100184.41;;;16.69;42.56
28428;BME280;15662;49.128;8.520;2023-03-19T02:24:09;100180.81;;;16.70;42.57
28428;BME280;15662;49.128;8.520;2023-03-19T02:26:49;100187.03;;;16.71;42.63
28428;BME280;15662;49.128;8.520;2023-03-19T02:29:20;100177.94;;;16.75;42.55
28428;BME280;15662;49.128;8.520;2023-03-19T02:31:50;100184.06;;;16.77;42.52
28428;BME280;15662;49.128;8.520;2023-03-19T02:36:58;100182.50;;;16.89;42.43
28428;BME280;15662;49.128;8.520;2023-03-19T02:40:06;100171.78;;;16.89;42.28
28428;BME280;15662;49.128;8.520;2023-03-19T02:42:37;100179.81;;;16.89;42.37
28428;BME280;15662;49.128;8.520;2023-03-19T02:45:10;100173.38;;;16.93;42.27
28428;BME280;15662;49.128;8.520;2023-03-19T02:47:40;100176.13;;;16.91;42.13
28428;BME280;15662;49.128;8.520;2023-03-19T02:50:11;100178.91;;;16.90;42.35
28428;BME280;15662;49.128;8.520;2023-03-19T02:52:39;100177.25;;;16.87;42.35
28428;BME280;15662;49.128;8.520;2023-03-19T02:55:09;100185.97;;;16.91;42.10
28428;BME280;15662;49.128;8.520;2023-03-19T02:57:38;100174.72;;;16.84;42.27
28428;BME280;15662;49.128;8.520;2023-03-19T03:00:07;100173.81;;;16.85;42.41
28428;BME280;15662;49.128;8.520;2023-03-19T03:02:39;100174.97;;;16.80;42.43
28428;BME280;15662;49.128;8.520;2023-03-19T03:05:11;100176.53;;;16.84;42.38
28428;BME280;15662;49.128;8.520;2023-03-19T03:07:40;100177.59;;;16.81;42.46
28428;BME280;15662;49.128;8.520;2023-03-19T03:10:13;100174.19;;;16.77;42.33
28428;BME280;15662;49.128;8.520;2023-03-19T03:12:41;100183.00;;;16.80;42.45
28428;BME280;15662;49.128;8.520;2023-03-19T03:15:12;100187.50;;;16.79;42.56
28428;BME280;15662;49.128;8.520;2023-03-19T03:17:43;100173.81;;;16.68;42.68
28428;BME280;15662;49.128;8.520;2023-03-19T03:20:15;100190.50;;;16.73;42.67
28428;BME280;15662;49.128;8.520;2023-03-19T03:22:45;100189.88;;;16.68;42.96
28428;BME280;15662;49.128;8.520;2023-03-19T03:25:15;100184.34;;;16.71;42.70
28428;BME280;15662;49.128;8.520;2023-03-19T03:27:44;100193.28;;;16.71;42.88
28428;BME280;15662;49.128;8.520;2023-03-19T03:30:13;100195.13;;;16.69;42.78
28428;BME280;15662;49.128;8.520;2023-03-19T03:32:43;100189.97;;;16.66;42.93
28428;BME280;15662;49.128;8.520;2023-03-19T03:35:13;100177.16;;;16.56;42.87
28428;BME280;15662;49.128;8.520;2023-03-19T03:37:53;100192.69;;;16.65;42.77
28428;BME280;15662;49.128;8.520;2023-03-19T03:40:21;100194.34;;;16.67;42.71
28428;BME280;15662;49.128;8.520;2023-03-19T03:42:49;100204.91;;;16.70;42.76
28428;BME280;15662;49.128;8.520;2023-03-19T03:45:18;100183.81;;;16.64;42.68
28428;BME280;15662;49.128;8.520;2023-03-19T03:47:47;100208.28;;;16.74;42.53
28428;BME280;15662;49.128;8.520;2023-03-19T03:50:17;100210.09;;;16.73;42.66
28428;BME280;15662;49.128;8.520;2023-03-19T03:52:48;100199.56;;;16.70;42.58
28428;BME280;15662;49.128;8.520;2023-03-19T03:55:16;100209.16;;;16.74;42.47
28428;BME280;15662;49.128;8.520;2023-03-19T03:57:49;100199.56;;;16.70;42.50
28428;BME280;15662;49.128;8.520;2023-03-19T04:00:38;100206.72;;;16.70;42.47
28428;BME280;15662;49.128;8.520;2023-03-19T04:03:27;100220.09;;;16.70;42.50
28428;BME280;15662;49.128;8.520;2023-03-19T04:05:58;100199.84;;;16.64;42.45
28428;BME280;15662;49.128;8.520;2023-03-19T04:08:26;100212.78;;;16.73;42.47
28428;BME280;15662;49.128;8.520;2023-03-19T04:10:55;100218.13;;;16.73;42.46
28428;BME280;15662;49.128;8.520;2023-03-19T04:13:25;100220.91;;;16.72;42.40
28428;BME280;15662;49.128;8.520;2023-03-19T04:15:54;100214.59;;;16.73;42.25
28428;BME280;15662;49.128;8.520;2023-03-19T04:18:23;100220.66;;;16.76;42.33
28428;BME280;15662;49.128;8.520;2023-03-19T04:20:52;100225.06;;;16.77;42.22
28428;BME280;15662;49.128;8.520;2023-03-19T04:23:21;100208.03;;;16.79;42.39
28428;BME280;15662;49.128;8.520;2023-03-19T04:25:49;100217.97;;;16.76;42.33
28428;BME280;15662;49.128;8.520;2023-03-19T04:28:20;100205.72;;;16.72;42.05
28428;BME280;15662;49.128;8.520;2023-03-19T04:30:49;100212.78;;;16.73;41.99
28428;BME280;15662;49.128;8.520;2023-03-19T04:33:18;100218.94;;;16.75;42.19
28428;BME280;15662;49.128;8.520;2023-03-19T04:35:47;100211.06;;;16.72;42.06
28428;BME280;15662;49.128;8.520;2023-03-19T04:38:15;100220.56;;;16.78;41.96
28428;BME280;15662;49.128;8.520;2023-03-19T04:40:44;100225.81;;;16.80;41.99
28428;BME280;15662;49.128;8.520;2023-03-19T04:43:14;100229.22;;;16.83;42.15
28428;BME280;15662;49.128;8.520;2023-03-19T04:45:43;100237.25;;;16.83;42.16
28428;BME280;15662;49.128;8.520;2023-03-19T04:48:12;100231.97;;;16.82;42.22
28428;BME280;15662;49.128;8.520;2023-03-19T04:50:42;100226.00;;;16.76;42.16
28428;BME280;15662;49.128;8.520;2023-03-19T04:53:12;100234.56;;;16.83;41.97
28428;BME280;15662;49.128;8.520;2023-03-19T04:55:42;100237.25;;;16.83;41.97
28428;BME280;15662;49.128;8.520;2023-03-19T04:58:16;100225.75;;;16.81;41.84
28428;BME280;15662;49.128;8.520;2023-03-19T05:00:51;100229.22;;;16.83;41.88
28428;BME280;15662;49.128;8.520;2023-03-19T05:03:25;100237.84;;;16.88;41.94
28428;BME280;15662;49.128;8.520;2023-03-19T05:05:54;100244.00;;;16.90;41.99
28428;BME280;15662;49.128;8.520;2023-03-19T05:08:24;100237.72;;;16.91;41.78
28428;BME280;15662;49.128;8.520;2023-03-19T05:10:52;100230.53;;;16.92;41.91
28428;BME280;15662;49.128;8.520;2023-03-19T05:13:21;100238.47;;;16.93;41.94
28428;BME280;15662;49.128;8.520;2023-03-19T05:15:53;100236.66;;;16.94;41.80
28428;BME280;15662;49.128;8.520;2023-03-19T05:18:23;100241.84;;;16.97;41.96
28428;BME280;15662;49.128;8.520;2023-03-19T05:20:53;100242.00;;;16.94;41.68
28428;BME280;15662;49.128;8.520;2023-03-19T05:23:22;100249.78;;;16.98;41.80
28428;BME280;15662;49.128;8.520;2023-03-19T05:26:08;100252.56;;;16.97;41.77
28428;BME280;15662;49.128;8.520;2023-03-19T05:28:56;100248.22;;;16.94;41.82
28428;BME280;15662;49.128;8.520;2023-03-19T05:31:34;100245.41;;;16.97;41.62
28428;BME280;15662;49.128;8.520;2023-03-19T05:34:03;100244.44;;;16.98;41.76
28428;BME280;15662;49.128;8.520;2023-03-19T05:36:33;100249.75;;;17.00;41.60
28428;BME280;15662;49.128;8.520;2023-03-19T05:39:16;100253.19;;;17.02;41.64
28428;BME280;15662;49.128;8.520;2023-03-19T05:41:46;100251.38;;;17.02;41.51
28428;BME280;15662;49.128;8.520;2023-03-19T05:44:19;100248.78;;;17.01;41.58
28428;BME280;15662;49.128;8.520;2023-03-19T05:47:11;100247.78;;;16.86;41.88
28428;BME280;15662;49.128;8.520;2023-03-19T05:49:45;100249.91;;;16.97;41.73
28428;BME280;15662;49.128;8.520;2023-03-19T05:52:13;100254.91;;;17.03;41.64
28428;BME280;15662;49.128;8.520;2023-03-19T05:54:44;100268.03;;;17.08;41.57
28428;BME280;15662;49.128;8.520;2023-03-19T05:57:36;100267.19;;;17.07;41.63
28428;BME280;15662;49.128;8.520;2023-03-19T06:00:11;100262.69;;;17.08;41.48
28428;BME280;15662;49.128;8.520;2023-03-19T06:02:42;100260.97;;;17.07;41.53
28428;BME280;15662;49.128;8.520;2023-03-19T06:05:42;100277.97;;;16.90;41.80
28428;BME280;15662;49.128;8.520;2023-03-19T06:08:28;100282.72;;;17.00;41.65
28428;BME280;15662;49.128;8.520;2023-03-19T06:11:02;100274.59;;;17.02;41.77
28428;BME280;15662;49.128;8.520;2023-03-19T06:13:32;100280.56;;;17.07;41.64
28428;BME280;15662;49.128;8.520;2023-03-19T06:16:07;100285.84;;;17.09;41.60
28428;BME280;15662;49.128;8.520;2023-03-19T06:18:42;100283.97;;;17.11;41.65
28428;BME280;15662;49.128;8.520;2023-03-19T06:21:16;100282.16;;;17.11;41.65
28428;BME280;15662;49.128;8.520;2023-03-19T06:23:45;100292.88;;;17.11;41.69
28428;BME280;15662;49.128;8.520;2023-03-19T06:26:17;100284.13;;;17.08;41.68
28428;BME280;15662;49.128;8.520;2023-03-19T06:28:53;100285.78;;;17.10;41.58
28428;BME280;15662;49.128;8.520;2023-03-19T06:31:22;100283.78;;;17.14;41.70
28428;BME280;15662;49.128;8.520;2023-03-19T06:33:54;100280.47;;;17.09;41.68
28428;BME280;15662;49.128;8.520;2023-03-19T06:36:27;100292.72;;;17.14;41.79
28428;BME280;15662;49.128;8.520;2023-03-19T06:38:57;100288.38;;;17.12;41.88
28428;BME280;15662;49.128;8.520;2023-03-19T06:41:26;100282.16;;;17.11;41.78
28428;BME280;15662;49.128;8.520;2023-03-19T06:44:01;100279.63;;;17.08;41.81
28428;BME280;15662;49.128;8.520;2023-03-19T06:46:29;100291.91;;;17.12;41.74
28428;BME280;15662;49.128;8.520;2023-03-19T06:48:57;100294.34;;;17.17;41.79
28428;BME280;15662;49.128;8.520;2023-03-19T06:51:25;100288.13;;;17.16;41.95
28428;BME280;15662;49.128;8.520;2023-03-19T06:53:57;100296.88;;;17.20;41.91
28428;BME280;15662;49.128;8.520;2023-03-19T06:56:25;100295.81;;;17.22;42.00
28428;BME280;15662;49.128;8.520;2023-03-19T06:58:55;100289.50;;;17.23;41.92
28428;BME280;15662;49.128;8.520;2023-03-19T07:01:24;100290.06;;;17.30;41.85
28428;BME280;15662;49.128;8.520;2023-03-19T07:03:55;100294.19;;;17.36;41.88
28428;BME280;15662;49.128;8.520;2023-03-19T07:06:24;100303.72;;;17.41;41.83
28428;BME280;15662;49.128;8.520;2023-03-19T07:08:52;100299.81;;;17.47;41.92
28428;BME280;15662;49.128;8.520;2023-03-19T07:11:21;100311.94;;;17.54;41.73
28428;BME280;15662;49.128;8.520;2023-03-19T07:13:50;100308.13;;;17.58;41.82
28428;BME280;15662;49.128;8.520;2023-03-19T07:16:19;100315.06;;;17.62;41.84
28428;BME280;15662;49.128;8.520;2023-03-19T07:18:47;100323.69;;;17.67;41.97
28428;BME280;15662;49.128;8.520;2023-03-19T07:21:16;100327.25;;;17.68;42.23
28428;BME280;15662;49.128;8.520;2023-03-19T07:23:46;100327.44;;;17.65;42.67
28428;BME280;15662;49.128;8.520;2023-03-19T07:26:18;100308.06;;;17.60;42.82
28428;BME280;15662;49.128;8.520;2023-03-19T07:28:47;100318.59;;;17.63;42.76
28428;BME280;15662;49.128;8.520;2023-03-19T07:31:16;100330.19;;;17.63;42.97
28428;BME280;15662;49.128;8.520;2023-03-19T07:33:45;100331.31;;;17.59;43.06
28428;BME280;15662;49.128;8.520;2023-03-19T07:36:16;100336.59;;;17.61;43.00
28428;BME280;15662;49.128;8.520;2023-03-19T07:38:45;100329.56;;;17.58;43.06
28428;BME280;15662;49.128;8.520;2023-03-19T07:41:15;100317.13;;;17.57;42.79
28428;BME280;15662;49.128;8.520;2023-03-19T07:43:43;100321.22;;;17.64;42.62
28428;BME280;15662;49.128;8.520;2023-03-19T07:46:11;100329.84;;;17.69;42.50
28428;BME280;15662;49.128;8.520;2023-03-19T07:48:40;100323.63;;;17.69;42.31
28428;BME280;15662;49.128;8.520;2023-03-19T07:51:09;100333.19;;;17.74;42.36
28428;BME280;15662;49.128;8.520;2023-03-19T07:53:37;100323.53;;;17.70;42.16
28428;BME280;15662;49.128;8.520;2023-03-19T07:56:06;100336.28;;;17.83;42.08
28428;BME280;15662;49.128;8.520;2023-03-19T07:58:35;100335.50;;;17.81;41.98
28428;BME280;15662;49.128;8.520;2023-03-19T08:01:04;100335.94;;;17.89;41.77
28428;BME280;15662;49.128;8.520;2023-03-19T08:03:33;100339.25;;;17.94;41.83
28428;BME280;15662;49.128;8.520;2023-03-19T08:06:02;100333.34;;;18.03;41.88
28428;BME280;15662;49.128;8.520;2023-03-19T08:08:31;100329.25;;;18.12;41.76
28428;BME280;15662;49.128;8.520;2023-03-19T08:11:02;100329.69;;;18.20;41.96
28428;BME280;15662;49.128;8.520;2023-03-19T08:13:30;100341.63;;;18.30;41.87
28428;BME280;15662;49.128;8.520;2023-03-19T08:15:59;100320.16;;;18.30;41.77
28428;BME280;15662;49.128;8.520;2023-03-19T08:18:28;100326.09;;;18.35;41.62
28428;BME280;15662;49.128;8.520;2023-03-19T08:20:57;100335.19;;;18.48;41.51
28428;BME280;15662;49.128;8.520;2023-03-19T08:23:25;100337.50;;;18.54;41.52
28428;BME280;15662;49.128;8.520;2023-03-19T08:25:53;100333.69;;;18.59;41.39
28428;BME280;15662;49.128;8.520;2023-03-19T08:28:24;100339.44;;;18.67;41.39
28428;BME280;15662;49.128;8.520;2023-03-19T08:30:52;100339.03;;;18.74;41.33
28428;BME280;15662;49.128;8.520;2023-03-19T08:33:22;100329.94;;;18.77;41.52
28428;BME280;15662;49.128;8.520;2023-03-19T08:35:52;100342.13;;;18.83;41.33
28428;BME280;15662;49.128;8.520;2023-03-19T08:38:20;100326.66;;;18.86;41.12
28428;BME280;15662;49.128;8.520;2023-03-19T08:40:49;100332.53;;;18.93;41.03
28428;BME280;15662;49.128;8.520;2023-03-19T08:43:18;100329.00;;;18.92;40.84
28428;BME280;15662;49.128;8.520;2023-03-19T08:45:46;100327.06;;;18.94;40.69
28428;BME280;15662;49.128;8.520;2023-03-19T08:48:14;100324.50;;;18.93;40.69
28428;BME280;15662;49.128;8.520;2023-03-19T08:50:43;100333.41;;;18.93;40.59
28428;BME280;15662;49.128;8.520;2023-03-19T08:53:12;100337.63;;;18.97;40.43
28428;BME280;15662;49.128;8.520;2023-03-19T08:55:41;100338.56;;;18.96;40.43
28428;BME280;15662;49.128;8.520;2023-03-19T08:58:11;100346.34;;;19.01;40.34
28428;BME280;15662;49.128;8.520;2023-03-19T09:00:40;100339.25;;;19.00;40.31
28428;BME280;15662;49.128;8.520;2023-03-19T09:03:09;100348.59;;;19.08;40.27
28428;BME280;15662;49.128;8.520;2023-03-19T09:05:37;100344.53;;;19.16;40.19
28428;BME280;15662;49.128;8.520;2023-03-19T09:08:06;100345.81;;;19.24;40.16
28428;BME280;15662;49.128;8.520;2023-03-19T09:10:34;100335.06;;;19.24;40.02
28428;BME280;15662;49.128;8.520;2023-03-19T09:13:04;100342.25;;;19.38;39.96
28428;BME280;15662;49.128;8.520;2023-03-19T09:15:34;100351.47;;;19.48;39.90
28428;BME280;15662;49.128;8.520;2023-03-19T09:18:02;100346.38;;;19.58;39.87
28428;BME280;15662;49.128;8.520;2023-03-19T09:20:33;100344.97;;;19.67;39.37
28428;BME280;15662;49.128;8.520;2023-03-19T09:23:04;100347.34;;;19.57;39.98
28428;BME280;15662;49.128;8.520;2023-03-19T09:25:33;100349.09;;;19.72;39.72
28428;BME280;15662;49.128;8.520;2023-03-19T09:28:05;100353.59;;;19.86;39.16
28428;BME280;15662;49.128;8.520;2023-03-19T09:30:34;100353.06;;;19.94;39.18
28428;BME280;15662;49.128;8.520;2023-03-19T09:33:04;100348.53;;;20.08;38.96
28428;BME280;15662;49.128;8.520;2023-03-19T09:35:34;100341.13;;;20.12;38.76
28428;BME280;15662;49.128;8.520;2023-03-19T09:38:07;100350.75;;;20.29;38.78
28428;BME280;15662;49.128;8.520;2023-03-19T09:40:43;100344.69;;;20.40;38.62
28428;BME280;15662;49.128;8.520;2023-03-19T09:46:20;100340.03;;;20.56;38.51
28428;BME280;15662;49.128;8.520;2023-03-19T09:54:42;100342.16;;;20.64;37.55
28428;BME280;15662;49.128;8.520;2023-03-19T09:57:14;100360.09;;;20.65;37.79
28428;BME280;15662;49.128;8.520;2023-03-19T09:59:52;100345.53;;;20.67;37.77
28428;BME280;15662;49.128;8.520;2023-03-19T10:02:30;100350.28;;;20.76;37.53
28428;BME280;15662;49.128;8.520;2023-03-19T10:26:20;100334.00;;;20.78;37.13
28428;BME280;15662;49.128;8.520;2023-03-19T10:32:03;100316.16;;;20.90;37.08
28428;BME280;15662;49.128;8.520;2023-03-19T10:34:48;100317.88;;;20.91;37.09
28428;BME280;15662;49.128;8.520;2023-03-19T10:37:25;100300.22;;;20.99;37.14
28428;BME280;15662;49.128;8.520;2023-03-19T10:40:05;100318.66;;;21.18;37.17
28428;BME280;15662;49.128;8.520;2023-03-19T10:43:14;100315.41;;;21.26;36.72
28428;BME280;15662;49.128;8.520;2023-03-19T10:45:44;100308.06;;;21.28;36.98
28428;BME280;15662;49.128;8.520;2023-03-19T10:48:17;100310.66;;;21.42;36.85
28428;BME280;15662;49.128;8.520;2023-03-19T10:51:03;100312.50;;;21.54;36.81
28428;BME280;15662;49.128;8.520;2023-03-19T10:53:37;100317.97;;;21.66;36.67
28428;BME280;15662;49.128;8.520;2023-03-19T10:56:27;100306.28;;;21.78;36.40
28428;BME280;15662;49.128;8.520;2023-03-19T10:59:06;100313.91;;;21.84;36.32
28428;BME280;15662;49.128;8.520;2023-03-19T11:01:40;100305.25;;;21.92;35.97
28428;BME280;15662;49.128;8.520;2023-03-19T11:04:23;100310.59;;;22.04;35.85
28428;BME280;15662;49.128;8.520;2023-03-19T11:07:13;100307.25;;;22.13;35.78
28428;BME280;15662;49.128;8.520;2023-03-19T11:09:48;100304.94;;;22.20;35.76
28428;BME280;15662;49.128;8.520;2023-03-19T11:12:29;100308.81;;;22.29;35.58
28428;BME280;15662;49.128;8.520;2023-03-19T11:14:59;100303.06;;;22.33;35.52
28428;BME280;15662;49.128;8.520;2023-03-19T11:17:49;100298.38;;;22.35;34.86
28428;BME280;15662;49.128;8.520;2023-03-19T11:20:33;100303.06;;;22.33;34.95
28428;BME280;15662;49.128;8.520;2023-03-19T11:23:16;100308.25;;;22.36;35.00
28428;BME280;15662;49.128;8.520;2023-03-19T11:25:54;100300.13;;;22.36;35.00
28428;BME280;15662;49.128;8.520;2023-03-19T11:28:24;100302.72;;;22.38;35.11
28428;BME280;15662;49.128;8.520;2023-03-19T11:31:14;100311.97;;;22.47;34.58
28428;BME280;15662;49.128;8.520;2023-03-19T11:45:48;100310.00;;;22.25;34.15
28428;BME280;15662;49.128;8.520;2023-03-19T12:00:56;100320.81;;;22.25;34.71
28428;BME280;15662;49.128;8.520;2023-03-19T12:24:11;100303.38;;;22.53;34.31
28428;BME280;15662;49.128;8.520;2023-03-19T12:29:59;100293.84;;;22.36;34.41
28428;BME280;15662;49.128;8.520;2023-03-19T12:35:37;100305.53;;;22.36;34.64
28428;BME280;15662;49.128;8.520;2023-03-19T12:38:28;100296.16;;;22.29;34.60
28428;BME280;15662;49.128;8.520;2023-03-19T12:41:09;100299.06;;;22.26;34.62
28428;BME280;15662;49.128;8.520;2023-03-19T12:46:41;100290.53;;;22.32;34.33
28428;BME280;15662;49.128;8.520;2023-03-19T12:49:33;100297.66;;;22.33;34.38
28428;BME280;15662;49.128;8.520;2023-03-19T12:52:35;100298.63;;;22.32;34.56
28428;BME280;15662;49.128;8.520;2023-03-19T12:55:22;100295.09;;;22.32;34.58
28428;BME280;15662;49.128;8.520;2023-03-19T13:01:05;100304.94;;;22.20;34.66
28428;BME280;15662;49.128;8.520;2023-03-19T13:04:32;100308.44;;;22.09;35.14
28428;BME280;15662;49.128;8.520;2023-03-19T13:07:31;100304.34;;;22.04;35.19
28428;BME280;15662;49.128;8.520;2023-03-19T13:10:19;100306.00;;;21.94;35.03
28428;BME280;15662;49.128;8.520;2023-03-19T13:12:50;100308.19;;;21.88;35.26
28428;BME280;15662;49.128;8.520;2023-03-19T13:15:36;100323.06;;;21.94;35.27
28428;BME280;15662;49.128;8.520;2023-03-19T13:18:39;100315.31;;;21.89;34.82
28428;BME280;15662;49.128;8.520;2023-03-19T13:21:25;100311.22;;;21.84;34.91
28428;BME280;15662;49.128;8.520;2023-03-19T13:24:23;100319.78;;;21.78;34.76
28428;BME280;15662;49.128;8.520;2023-03-19T13:26:54;100309.22;;;21.62;34.96
28428;BME280;15662;49.128;8.520;2023-03-19T13:29:27;100308.28;;;21.63;34.87
28428;BME280;15662;49.128;8.520;2023-03-19T13:33:12;100308.28;;;21.63;34.76
28428;BME280;15662;49.128;8.520;2023-03-19T13:35:39;100315.50;;;21.62;35.14
28428;BME280;15662;49.128;8.520;2023-03-19T13:40:56;100317.31;;;21.62;35.43
28428;BME280;15662;49.128;8.520;2023-03-19T13:56:27;100321.34;;;21.44;36.70
28428;BME280;15662;49.128;8.520;2023-03-19T13:59:33;100317.81;;;21.43;37.02
28428;BME280;15662;49.128;8.520;2023-03-19T14:05:07;100313.28;;;21.31;37.36
28428;BME280;15662;49.128;8.520;2023-03-19T14:07:50;100309.59;;;21.32;37.30
28428;BME280;15662;49.128;8.520;2023-03-19T14:10:26;100306.13;;;21.30;37.25
28428;BME280;15662;49.128;8.520;2023-03-19T14:13:08;100304.13;;;21.33;37.42
28428;BME280;15662;49.128;8.520;2023-03-19T14:15:49;100305.06;;;21.32;37.45
28428;BME280;15662;49.128;8.520;2023-03-19T14:18:21;100304.31;;;21.30;37.33
28428;BME280;15662;49.128;8.520;2023-03-19T14:21:04;100306.56;;;21.24;37.22
28428;BME280;15662;49.128;8.520;2023-03-19T14:23:50;100307.97;;;21.17;37.23
28428;BME280;15662;49.128;8.520;2023-03-19T14:26:22;100307.88;;;21.18;37.58
28428;BME280;15662;49.128;8.520;2023-03-19T14:29:03;100304.19;;;21.19;37.33
28428;BME280;15662;49.128;8.520;2023-03-19T14:31:49;100308.63;;;21.20;37.47
28428;BME280;15662;49.128;8.520;2023-03-19T14:34:42;100313.34;;;21.17;37.66
28428;BME280;15662;49.128;8.520;2023-03-19T14:46:00;100312.59;;;20.89;37.94
28428;BME280;15662;49.128;8.520;2023-03-19T14:54:46;100315.81;;;20.81;38.20
28428;BME280;15662;49.128;8.520;2023-03-19T14:57:26;100307.09;;;20.78;38.38
28428;BME280;15662;49.128;8.520;2023-03-19T14:59:58;100302.00;;;20.73;38.27
28428;BME280;15662;49.128;8.520;2023-03-19T15:02:36;100298.13;;;20.77;38.43
28428;BME280;15662;49.128;8.520;2023-03-19T15:05:24;100303.63;;;20.76;38.72
28428;BME280;15662;49.128;8.520;2023-03-19T15:08:03;100303.53;;;20.77;38.98
28428;BME280;15662;49.128;8.520;2023-03-19T15:10:48;100305.25;;;20.78;38.92
28428;BME280;15662;49.128;8.520;2023-03-19T15:16:53;100306.56;;;20.85;39.11
28428;BME280;15662;49.128;8.520;2023-03-19T15:19:29;100301.72;;;20.91;39.00
28428;BME280;15662;49.128;8.520;2023-03-19T15:22:12;100306.22;;;21.03;38.84
28428;BME280;15662;49.128;8.520;2023-03-19T15:24:41;100297.38;;;20.88;39.20
28428;BME280;15662;49.128;8.520;2023-03-19T15:27:30;100304.31;;;21.05;39.01
28428;BME280;15662;49.128;8.520;2023-03-19T15:29:58;100301.72;;;21.03;38.96
28428;BME280;15662;49.128;8.520;2023-03-19T15:32:41;100309.06;;;21.14;39.17
28428;BME280;15662;49.128;8.520;2023-03-19T15:35:33;100313.81;;;21.23;38.97
28428;BME280;15662;49.128;8.520;2023-03-19T15:38:09;100307.44;;;21.24;39.08
28428;BME280;15662;49.128;8.520;2023-03-19T15:40:40;100310.13;;;21.24;39.08
28428;BME280;15662;49.128;8.520;2023-03-19T15:43:13;100316.13;;;21.28;39.17